DAPG EDVK-EDVK

Flight info

Callsign DAPG
Flight time 0h 18m
Altitude
Route .D / TC
Aircraft TC

Departure

Time 2026-04-21 15:04
Airport Kassel Airport (EDVK)

Arrival

Time 2026-04-21 15:23
Airport Kassel Airport (EDVK)
Time Latitude Longitude Altitude Speed Heading
2026-04-21 15:04 51.41908 9.41883 1446 ft 141 kts 89°
2026-04-21 15:04 51.42008 9.43501 1623 ft 138 kts 61°
2026-04-21 15:04 51.42780 9.43980 1495 ft 133 kts 342°
2026-04-21 15:05 51.43201 9.42806 1544 ft 128 kts 272°
2026-04-21 15:05 51.43133 9.39832 1560 ft 137 kts 264°
2026-04-21 15:05 51.43044 9.38334 1771 ft 135 kts 269°
2026-04-21 15:06 51.42959 9.36818 1792 ft 142 kts 266°
2026-04-21 15:06 51.42834 9.35220 1736 ft 140 kts 265°
2026-04-21 15:06 51.42375 9.34187 1586 ft 96 kts 176°
2026-04-21 15:06 51.42068 9.34677 1345 ft 69 kts 73°
2026-04-21 15:07 51.42183 9.35549 1172 ft 82 kts 82°
2026-04-21 15:07 51.42191 9.36445 1041 ft 78 kts 81°
2026-04-21 15:07 51.42173 9.37275 926 ft 72 kts 87°
2026-04-21 15:07 51.42143 9.38027 865 ft 63 kts 89°
2026-04-21 15:08 51.42115 9.38633 858 ft 61 kts 94°
2026-04-21 15:08 51.42066 9.39562 1043 ft 93 kts 91°
2026-04-21 15:08 51.41957 9.40682 1439 ft 107 kts 85°
2026-04-21 15:08 51.42322 9.41792 1680 ft 123 kts 45°
2026-04-21 15:09 51.43139 9.42394 1772 ft 138 kts 19°
2026-04-21 15:09 51.44104 9.42770 1779 ft 145 kts 17°
2026-04-21 15:09 51.45089 9.43176 1840 ft 146 kts 23°
2026-04-21 15:09 51.45757 9.44287 1840 ft 140 kts 71°
2026-04-21 15:10 51.45914 9.45817 1825 ft 138 kts 78°
2026-04-21 15:10 51.46214 9.47250 1857 ft 134 kts 61°
2026-04-21 15:10 51.46740 9.48453 1861 ft 132 kts 52°
2026-04-21 15:10 51.47273 9.49658 1962 ft 137 kts 54°
2026-04-21 15:11 51.47849 9.50956 2004 ft 147 kts 53°
2026-04-21 15:11 51.48465 9.52302 2039 ft 148 kts 53°
2026-04-21 15:11 51.49004 9.53558 2193 ft 133 kts 56°
2026-04-21 15:11 51.49537 9.54758 2190 ft 131 kts 53°
2026-04-21 15:12 51.50239 9.55599 2192 ft 127 kts 22°
2026-04-21 15:12 51.51129 9.55620 2194 ft 135 kts 349°
2026-04-21 15:12 51.52046 9.55015 2204 ft 147 kts 340°
2026-04-21 15:12 51.52989 9.54296 2211 ft 153 kts 340°
2026-04-21 15:13 51.53956 9.53562 2211 ft 158 kts 340°
2026-04-21 15:13 51.54917 9.52683 2213 ft 162 kts 327°
2026-04-21 15:13 51.55753 9.51446 2206 ft 163 kts 323°
2026-04-21 15:13 51.56571 9.50197 2208 ft 162 kts 322°
2026-04-21 15:14 51.57393 9.48951 2207 ft 162 kts 323°
2026-04-21 15:14 51.58220 9.47710 2213 ft 163 kts 323°
2026-04-21 15:14 51.59057 9.46461 2204 ft 164 kts 323°
2026-04-21 15:14 51.59876 9.45222 2205 ft 163 kts 322°
2026-04-21 15:15 51.60675 9.44171 1894 ft 138 kts 339°
2026-04-21 15:15 51.61494 9.43820 1717 ft 110 kts 345°
2026-04-21 15:15 51.61871 9.43064 1487 ft 85 kts 261°
2026-04-21 15:15 51.61492 9.42172 1228 ft 103 kts 241°
2026-04-21 15:16 51.61264 9.41145 1011 ft 91 kts 255°
2026-04-21 15:16 51.61143 9.40252 854 ft 82 kts 259°
2026-04-21 15:16 51.61039 9.39410 896 ft 85 kts 262°
2026-04-21 15:16 51.60757 9.38405 1137 ft 116 kts 240°
2026-04-21 15:17 51.60184 9.37431 1610 ft 121 kts 218°
2026-04-21 15:17 51.59442 9.36584 1854 ft 145 kts 212°
2026-04-21 15:17 51.58508 9.35783 2113 ft 158 kts 201°
2026-04-21 15:17 51.57417 9.35174 2108 ft 168 kts 192°
2026-04-21 15:18 51.56330 9.34747 2273 ft 159 kts 187°
2026-04-21 15:18 51.55233 9.34492 2317 ft 155 kts 184°
2026-04-21 15:18 51.54180 9.34302 2332 ft 150 kts 182°
2026-04-21 15:18 51.53140 9.34095 2264 ft 149 kts 182°
2026-04-21 15:19 51.52095 9.33994 2110 ft 152 kts 177°
2026-04-21 15:19 51.51054 9.34043 2068 ft 147 kts 170°
2026-04-21 15:19 51.50035 9.34124 2014 ft 148 kts 187°
2026-04-21 15:19 51.49076 9.33355 1862 ft 156 kts 208°
2026-04-21 15:20 51.48104 9.32642 1795 ft 158 kts 197°
2026-04-21 15:20 51.47041 9.32214 1826 ft 153 kts 185°
2026-04-21 15:20 51.45987 9.32041 1847 ft 152 kts 177°
2026-04-21 15:20 51.44940 9.31980 1827 ft 150 kts 176°
2026-04-21 15:21 51.43930 9.31935 1770 ft 132 kts 174°
2026-04-21 15:21 51.43210 9.32357 1701 ft 106 kts 129°
2026-04-21 15:21 51.42727 9.33234 1608 ft 100 kts 118°
2026-04-21 15:21 51.42479 9.34173 1460 ft 89 kts 102°
2026-04-21 15:22 51.42350 9.35013 1326 ft 73 kts 93°
2026-04-21 15:22 51.42259 9.35913 1191 ft 83 kts 94°
2026-04-21 15:22 51.42210 9.36804 1037 ft 79 kts 94°
2026-04-21 15:22 51.42164 9.37616 890 ft 66 kts 89°
2026-04-21 15:23 51.42134 9.38231 858 ft 41 kts 93°
2026-04-21 15:23 51.42123 9.38397 858 ft 10 kts 90°
2026-04-21 15:23 51.42116 9.38539 858 ft 18 kts 94°
2026-04-21 15:23 51.42101 9.38786 858 ft 22 kts 93°
2026-04-21 15:24 51.42053 9.38883 858 ft 13 kts 191°
2026-04-21 15:24 51.41975 9.38872 858 ft 6 kts 183°
2026-04-21 15:24 51.41951 9.38873 850 ft 13 kts 169°
2026-04-21 15:24 51.41936 9.38942 858 ft 14 kts 91°
2026-04-21 15:25 51.41922 9.39194 851 ft 23 kts 96°
2026-04-21 15:25 51.41901 9.39359 855 ft 10 kts 144°
2026-04-21 15:25 51.41835 9.39355 858 ft 10 kts 187°
2026-04-21 15:25 51.41788 9.39321 858 ft 8 kts 232°
2026-04-21 15:26 51.41758 9.39316 858 ft 2 kts 107°
2026-04-21 15:26 51.41758 9.39320 858 ft 0 kts 95°